createdAt,value
2019-05-03T00:00:58.894Z,29.1
2019-05-03T00:02:03.060Z,28.8
2019-05-03T00:03:05.468Z,28.8
2019-05-03T00:04:08.472Z,28.9
2019-05-03T00:05:12.700Z,29.1
2019-05-03T00:06:15.468Z,28.6
2019-05-03T00:07:17.614Z,29.2
2019-05-03T00:08:21.705Z,29.2
2019-05-03T00:09:24.204Z,28.8
2019-05-03T00:10:26.616Z,28.7
2019-05-03T00:11:28.783Z,29
2019-05-03T00:12:33.190Z,29.1
2019-05-03T00:13:36.442Z,29.1
2019-05-03T00:14:39.206Z,28.8
2019-05-03T00:15:42.915Z,29.3
2019-05-03T00:16:45.084Z,28.8
2019-05-03T00:17:48.216Z,29.1
2019-05-03T00:18:50.345Z,28.9
2019-05-03T00:19:54.345Z,28.8
2019-05-03T00:20:56.773Z,29.3
2019-05-03T00:21:58.646Z,28.9
2019-05-03T00:23:03.724Z,28.7
2019-05-03T00:24:06.143Z,28.7
2019-05-03T00:25:08.615Z,29
2019-05-03T00:26:13.393Z,29.4
2019-05-03T00:27:16.442Z,29.1
2019-05-03T00:28:18.291Z,29.2
2019-05-03T00:29:22.630Z,28.9
2019-05-03T00:30:25.054Z,28.8
2019-05-03T00:31:27.490Z,29
2019-05-03T00:32:31.781Z,29.2
2019-05-03T00:33:34.166Z,29.1
2019-05-03T00:34:36.064Z,29.2
2019-05-03T00:35:39.052Z,29.1
2019-05-03T00:36:43.379Z,28.9
2019-05-03T00:37:46.603Z,29.3
2019-05-03T00:38:48.743Z,29.3
2019-05-03T00:39:52.952Z,29.2
2019-05-03T00:40:55.576Z,29.2
2019-05-03T00:41:57.992Z,29.6
2019-05-03T00:43:02.151Z,29.3
2019-05-03T00:44:05.882Z,29.5
2019-05-03T00:45:08.320Z,29.2
2019-05-03T00:46:12.488Z,29
2019-05-03T00:47:14.714Z,29.3
2019-05-03T00:48:17.142Z,29.1
2019-05-03T00:49:19.293Z,29.3
2019-05-03T00:50:22.848Z,29.1
2019-05-03T00:51:25.037Z,29.1
2019-05-03T00:52:27.468Z,29
2019-05-03T00:53:32.803Z,29.1
2019-05-03T00:54:34.977Z,29
2019-05-03T00:55:37.165Z,29.1
2019-05-03T00:56:42.482Z,29.2
2019-05-03T00:57:44.303Z,29.3
2019-05-03T00:58:47.531Z,29.2
2019-05-03T00:59:49.401Z,29.2
2019-05-03T01:00:53.598Z,29.3
2019-05-03T01:01:56.029Z,29.1
2019-05-03T01:02:58.446Z,29.4
2019-05-03T01:04:02.632Z,29.1
2019-05-03T01:05:05.062Z,29.1
2019-05-03T01:06:07.686Z,28.8
2019-05-03T01:07:12.065Z,29.3
2019-05-03T01:08:15.096Z,29.1
2019-05-03T01:09:17.518Z,29.5
2019-05-03T01:10:19.385Z,29.5
2019-05-03T01:11:24.023Z,29
2019-05-03T01:12:27.051Z,29.1
2019-05-03T01:13:29.473Z,28.6
2019-05-03T01:14:33.484Z,29.3
2019-05-03T01:15:37.540Z,28.9
2019-05-03T01:16:39.744Z,29.1
2019-05-03T01:17:44.107Z,29.3
2019-05-03T01:18:46.260Z,29
2019-05-03T01:19:47.846Z,29.3
2019-05-03T01:20:51.839Z,29.1
2019-05-03T01:21:54.501Z,29.4
2019-05-03T01:22:56.930Z,29.3
2019-05-03T01:23:59.273Z,29.1
2019-05-03T01:25:03.330Z,29.1
2019-05-03T01:26:05.474Z,29.1
2019-05-03T01:27:08.083Z,29.1
2019-05-03T01:28:12.212Z,29.1
2019-05-03T01:29:14.866Z,29.1
2019-05-03T01:30:17.019Z,29.2
2019-05-03T01:31:19.424Z,29.1
2019-05-03T01:32:25.361Z,29.2
2019-05-03T01:33:28.389Z,29
2019-05-03T01:34:32.362Z,29.4
2019-05-03T01:35:35.251Z,29.3
2019-05-03T01:36:37.391Z,29.1
2019-05-03T01:37:40.035Z,29
2019-05-03T01:38:44.114Z,29.1
2019-05-03T01:39:46.540Z,29.1
2019-05-03T01:40:48.947Z,29.1
2019-05-03T01:41:53.169Z,29.1
2019-05-03T01:42:55.603Z,29.2
2019-05-03T01:43:57.571Z,29.2
2019-05-03T01:45:01.714Z,29.2
2019-05-03T01:46:04.453Z,29.3
2019-05-03T01:47:07.705Z,28.8
2019-05-03T01:48:12.508Z,29.4
2019-05-03T01:49:15.323Z,29.1
2019-05-03T01:50:17.735Z,28.9
2019-05-03T01:51:21.910Z,28.9
2019-05-03T01:52:24.418Z,29.3
2019-05-03T01:53:26.599Z,29.1
2019-05-03T01:54:28.733Z,29.5
2019-05-03T01:55:43.596Z,28.9
2019-05-03T01:56:38.571Z,29.3
2019-05-03T01:57:47.238Z,29.6
2019-05-03T01:58:49.678Z,28.7
2019-05-03T01:59:54.374Z,28.9
2019-05-03T02:00:56.814Z,29.3
2019-05-03T02:01:58.983Z,29.2
2019-05-03T02:03:03.259Z,29.4
2019-05-03T02:04:05.403Z,29
2019-05-03T02:05:08.024Z,29.2
2019-05-03T02:06:12.465Z,29.3
2019-05-03T02:07:14.356Z,29.4
2019-05-03T02:08:16.508Z,29.3
2019-05-03T02:09:18.944Z,28.8
2019-05-03T02:10:23.381Z,29.4
2019-05-03T02:11:26.429Z,29.2
2019-05-03T02:12:28.893Z,29.3
2019-05-03T02:13:33.348Z,28.7
2019-05-03T02:14:35.664Z,29.3
2019-05-03T02:15:38.207Z,29.2
2019-05-03T02:16:42.753Z,29.1
2019-05-03T02:17:45.536Z,29.3
2019-05-03T02:18:48.143Z,29
2019-05-03T02:19:52.654Z,29.1
2019-05-03T02:20:55.176Z,29.2
2019-05-03T02:21:57.021Z,28.8
2019-05-03T02:23:00.174Z,29
2019-05-03T02:24:03.907Z,29.2
2019-05-03T02:25:06.932Z,29.4
2019-05-03T02:26:09.351Z,29
2019-05-03T02:27:13.895Z,28.9
2019-05-03T02:28:16.323Z,29.3
2019-05-03T02:29:18.191Z,29
2019-05-03T02:30:24.905Z,29.4
2019-05-03T02:31:27.396Z,29.5
2019-05-03T02:32:29.816Z,29
2019-05-03T02:33:34.777Z,28.9
2019-05-03T02:34:36.953Z,29.1
2019-05-03T02:35:39.389Z,29.1
2019-05-03T02:36:44.851Z,29
2019-05-03T02:37:46.721Z,29
2019-05-03T02:38:49.742Z,29
2019-05-03T02:39:56.285Z,29.1
2019-05-03T02:40:58.711Z,29
2019-05-03T02:42:10.258Z,29.4
2019-05-03T02:43:09.632Z,29
2019-05-03T02:44:11.999Z,29.1
2019-05-03T02:45:17.939Z,29.1
2019-05-03T02:46:19.824Z,28.9
2019-05-03T02:47:21.993Z,29
2019-05-03T02:48:28.903Z,29.1
2019-05-03T02:49:31.355Z,29.4
2019-05-03T02:50:37.305Z,29.2
2019-05-03T02:51:39.903Z,29.2
2019-05-03T02:52:42.325Z,29.1
2019-05-03T02:53:48.274Z,29.3
2019-05-03T02:54:50.693Z,29
2019-05-03T02:56:13.653Z,29.3
2019-05-03T02:57:02.755Z,29
2019-05-03T02:58:08.376Z,28.9
2019-05-03T02:59:10.806Z,29.2
2019-05-03T03:00:17.705Z,28.6
2019-05-03T03:01:20.133Z,28.9
2019-05-03T03:02:22.807Z,28.9
2019-05-03T03:03:28.276Z,29.1
2019-05-03T03:04:30.711Z,29.4
2019-05-03T03:05:32.594Z,28.6
2019-05-03T03:06:37.050Z,28.8
2019-05-03T03:07:39.642Z,29.4
2019-05-03T03:08:45.230Z,28.5
2019-05-03T03:09:47.876Z,29
2019-05-03T03:10:50.029Z,28.9
2019-05-03T03:11:52.174Z,28.8
2019-05-03T03:12:57.635Z,28.9
2019-05-03T03:14:00.083Z,28.7
2019-05-03T03:15:02.504Z,29
2019-05-03T03:16:07.963Z,28.9
2019-05-03T03:17:10.133Z,28.7
2019-05-03T03:18:12.011Z,28.3
2019-05-03T03:19:17.479Z,28.8
2019-05-03T03:20:19.541Z,29
2019-05-03T03:21:21.678Z,28.9
2019-05-03T03:22:28.272Z,28.8
2019-05-03T03:23:30.695Z,28.8
2019-05-03T03:24:37.594Z,28.5
2019-05-03T03:25:40.015Z,28.7
2019-05-03T03:26:44.319Z,28.8
2019-05-03T03:27:47.431Z,28.6
2019-05-03T03:28:49.584Z,28.6
2019-05-03T03:29:52.003Z,28.5
2019-05-03T03:30:57.838Z,28.7
2019-05-03T03:32:00.288Z,28.7
2019-05-03T03:33:02.806Z,28.5
2019-05-03T03:34:08.683Z,28.6
2019-05-03T03:35:13.085Z,28.6
2019-05-03T03:36:49.488Z,28.7
2019-05-03T03:37:25.933Z,28.4
2019-05-03T03:38:28.626Z,28.7
2019-05-03T03:39:30.795Z,28.8
2019-05-03T03:40:32.402Z,28.7
2019-05-03T03:41:38.948Z,28.7
2019-05-03T03:42:41.515Z,28.6
2019-05-03T03:43:47.615Z,28.6
2019-05-03T03:44:50.046Z,28.6
2019-05-03T03:45:55.514Z,28.5
2019-05-03T03:46:58.220Z,28.6
2019-05-03T03:48:00.653Z,28.5
2019-05-03T03:49:07.253Z,28.4
2019-05-03T03:50:09.900Z,28.4
2019-05-03T03:51:12.293Z,28.6
2019-05-03T03:52:17.929Z,28.5
2019-05-03T03:53:20.343Z,28.5
2019-05-03T03:54:22.775Z,28.4
2019-05-03T03:55:28.233Z,28.5
2019-05-03T03:56:30.387Z,28.3
2019-05-03T03:57:35.617Z,28.4
2019-05-03T04:00:09.268Z,28.5
2019-05-03T04:01:11.413Z,28.5
2019-05-03T04:02:17.826Z,28.5
2019-05-03T04:03:20.263Z,28.4
2019-05-03T04:04:22.410Z,28.4
2019-05-03T04:05:27.875Z,28.3
2019-05-03T04:06:30.321Z,28.4
2019-05-03T04:07:32.474Z,28.3
2019-05-03T04:08:37.939Z,28.6
2019-05-03T04:09:40.380Z,28.6
2019-05-03T04:10:42.533Z,28.3
2019-05-03T04:11:48.481Z,28.4
2019-05-03T04:12:50.893Z,28.4
2019-05-03T04:13:55.763Z,28.5
2019-05-03T04:14:58.314Z,28.4
2019-05-03T04:16:00.464Z,28.3
2019-05-03T04:17:07.581Z,28.4
2019-05-03T04:18:10.614Z,28.4
2019-05-03T04:19:12.766Z,28.4
2019-05-03T04:20:19.661Z,28.6
2019-05-03T04:21:22.082Z,28.3
2019-05-03T04:22:27.536Z,28.5
2019-05-03T04:23:29.665Z,28.5
2019-05-03T04:24:32.197Z,28.6
2019-05-03T04:25:37.662Z,28.5
2019-05-03T04:26:40.068Z,28.3
2019-05-03T04:27:42.282Z,28.4
2019-05-03T04:28:47.751Z,28.4
2019-05-03T04:29:49.910Z,28.3
2019-05-03T04:30:55.183Z,28.4
2019-05-03T04:31:57.914Z,28.4
2019-05-03T04:33:00.347Z,28.4
2019-05-03T04:34:07.675Z,28.5
2019-05-03T04:35:10.321Z,28.6
2019-05-03T04:36:17.863Z,28.3
2019-05-03T04:37:20.318Z,28.2
2019-05-03T04:38:25.538Z,28.4
2019-05-03T04:39:27.724Z,28.3
2019-05-03T04:40:30.146Z,28.3
2019-05-03T04:41:32.585Z,28.3
2019-05-03T04:42:37.775Z,28.3
2019-05-03T04:43:40.415Z,28
2019-05-03T04:44:45.556Z,28.4
2019-05-03T04:45:48.175Z,28.5
2019-05-03T04:46:50.803Z,28.3
2019-05-03T04:47:56.451Z,28.3
2019-05-03T04:48:59.107Z,28.3
2019-05-03T04:50:01.476Z,28.2
2019-05-03T04:51:07.450Z,28.3
2019-05-03T04:52:09.892Z,28.3
2019-05-03T04:53:12.064Z,28.2
2019-05-03T04:54:18.212Z,28.2
2019-05-03T04:55:20.634Z,28.3
2019-05-03T04:56:25.151Z,28.2
2019-05-03T04:57:39.501Z,28.4
2019-05-03T04:58:32.746Z,28.2
2019-05-03T04:59:38.211Z,28.1
2019-05-03T05:00:40.643Z,28.3
2019-05-03T05:01:42.513Z,28.2
2019-05-03T05:02:49.191Z,28.3
2019-05-03T05:03:52.199Z,28.3
2019-05-03T05:04:58.137Z,28.3
2019-05-03T05:06:00.486Z,28.3
2019-05-03T05:07:02.830Z,28.4
2019-05-03T05:08:08.272Z,28.3
2019-05-03T05:09:10.423Z,28.2
2019-05-03T05:10:15.265Z,28.1
2019-05-03T05:11:17.838Z,28.4
2019-05-03T05:12:21.686Z,28.4
2019-05-03T05:13:27.124Z,28.2
2019-05-03T05:14:29.728Z,28.3
2019-05-03T05:15:31.754Z,28.1
2019-05-03T05:16:39.625Z,28.4
2019-05-03T05:19:18.351Z,28.3
2019-05-03T05:20:20.782Z,28.3
2019-05-03T05:21:25.109Z,28.2
2019-05-03T05:22:27.903Z,28.2
2019-05-03T05:23:30.064Z,28.2
2019-05-03T05:24:34.591Z,28.2
2019-05-03T05:25:37.885Z,28.2
2019-05-03T05:26:40.501Z,28.2
2019-05-03T05:27:49.313Z,28.2
2019-05-03T05:28:50.756Z,28.3
2019-05-03T05:29:57.645Z,28.2
2019-05-03T05:30:59.795Z,28
2019-05-03T05:32:01.941Z,28.2
2019-05-03T05:33:06.272Z,28.2
2019-05-03T05:34:09.002Z,28.2
2019-05-03T05:35:11.185Z,28.3
2019-05-03T05:36:15.455Z,28.1
2019-05-03T05:37:18.697Z,28.3
2019-05-03T05:38:22.051Z,28.2
2019-05-03T05:39:26.520Z,28.3
2019-05-03T05:40:28.933Z,28
2019-05-03T05:41:31.265Z,28.1
2019-05-03T05:42:36.333Z,28.3
2019-05-03T05:43:39.124Z,28.3
2019-05-03T05:44:41.730Z,28.2
2019-05-03T05:45:46.336Z,28.3
2019-05-03T05:46:48.494Z,28.1
2019-05-03T05:47:50.655Z,28.1
2019-05-03T05:48:55.432Z,28.2
2019-05-03T05:49:57.923Z,28.1
2019-05-03T05:51:00.403Z,28.2
2019-05-03T05:52:06.644Z,28.3
2019-05-03T05:53:09.076Z,28.2
2019-05-03T05:54:14.037Z,28.1
2019-05-03T05:55:16.795Z,28.2
2019-05-03T05:56:19.219Z,28.2
2019-05-03T05:57:21.094Z,28.2
2019-05-03T05:58:25.371Z,28
2019-05-03T05:59:27.689Z,28.3
2019-05-03T06:00:30.729Z,28
2019-05-03T06:01:38.513Z,28.3
2019-05-03T06:02:40.669Z,28.3
2019-05-03T06:03:44.990Z,28.1
2019-05-03T06:04:47.977Z,28.2
2019-05-03T06:05:50.302Z,28.3
2019-05-03T06:06:52.461Z,28.2
2019-05-03T06:07:56.237Z,28.1
2019-05-03T06:08:58.378Z,28.1
2019-05-03T06:10:00.803Z,28.3
2019-05-03T06:11:04.503Z,28.2
2019-05-03T06:12:07.650Z,28.3
2019-05-03T06:13:09.513Z,28.1
2019-05-03T06:14:11.943Z,28.2
2019-05-03T06:15:16.273Z,28
2019-05-03T06:16:18.697Z,28.4
2019-05-03T06:17:21.877Z,28.2
2019-05-03T06:18:26.474Z,28.3
2019-05-03T06:19:29.083Z,28.1
2019-05-03T06:20:31.510Z,28.2
2019-05-03T06:21:35.851Z,28.3
2019-05-03T06:22:37.939Z,28
2019-05-03T06:23:41.139Z,28.2
2019-05-03T06:24:45.863Z,28.2
2019-05-03T06:25:49.049Z,28.2
2019-05-03T06:26:52.081Z,28.2
2019-05-03T06:27:56.573Z,28.2
2019-05-03T06:28:59.109Z,28.2
2019-05-03T06:30:01.800Z,28.2
2019-05-03T06:31:06.041Z,28.2
2019-05-03T06:32:09.248Z,28.5
2019-05-03T06:33:11.657Z,28.2
2019-05-03T06:34:15.863Z,28.2
2019-05-03T06:35:18.023Z,28.2
2019-05-03T06:36:20.157Z,28.4
2019-05-03T06:37:22.312Z,28.5
2019-05-03T06:38:26.885Z,28.2
2019-05-03T06:39:29.321Z,28.3
2019-05-03T06:40:31.513Z,28.3
2019-05-03T06:41:35.229Z,28.2
2019-05-03T06:42:50.936Z,28.2
2019-05-03T06:43:44.927Z,28.1
2019-05-03T06:44:47.462Z,28.3
2019-05-03T06:45:50.530Z,28.3
2019-05-03T06:47:00.986Z,28.3
2019-05-03T06:48:02.496Z,28.3
2019-05-03T06:49:10.031Z,28.3
2019-05-03T06:50:11.932Z,28.2
2019-05-03T06:51:20.252Z,28.3
2019-05-03T06:52:25.355Z,28.4
2019-05-03T06:53:27.993Z,28.2
2019-05-03T06:54:31.161Z,28.3
2019-05-03T06:55:39.901Z,28.2
2019-05-03T06:56:41.600Z,28.2
2019-05-03T06:57:49.469Z,28.1
2019-05-03T06:58:51.537Z,28.1
2019-05-03T06:59:55.619Z,28.2
2019-05-03T07:00:57.763Z,28.1
2019-05-03T07:02:00.104Z,28
2019-05-03T07:03:02.531Z,28.2
2019-05-03T07:04:06.816Z,28.3
2019-05-03T07:05:09.603Z,28.2
2019-05-03T07:06:12.214Z,27.9
2019-05-03T07:07:17.679Z,28.1
2019-05-03T07:08:19.825Z,28.2
2019-05-03T07:09:22.249Z,28.2
2019-05-03T07:10:26.503Z,28.2
2019-05-03T07:11:29.111Z,28.2
2019-05-03T07:12:31.552Z,28.2
2019-05-03T07:13:35.966Z,28.4
2019-05-03T07:14:39.233Z,28.1
2019-05-03T07:15:41.771Z,28.2
2019-05-03T07:16:45.952Z,28.2
2019-05-03T07:17:48.204Z,28.4
2019-05-03T07:18:50.388Z,28.1
2019-05-03T07:19:54.588Z,28.2
2019-05-03T07:20:57.277Z,28.3
2019-05-03T07:21:59.441Z,28.1
2019-05-03T07:23:04.262Z,28.3
2019-05-03T07:24:06.779Z,28.1
2019-05-03T07:25:08.922Z,28.2
2019-05-03T07:26:11.078Z,28.2
2019-05-03T07:27:16.207Z,28.2
2019-05-03T07:28:18.740Z,28.1
2019-05-03T07:29:20.877Z,28.2
2019-05-03T07:31:55.935Z,28.1
2019-05-03T07:32:58.532Z,28.2
2019-05-03T07:34:01.026Z,28.4
2019-05-03T07:35:05.703Z,28.3
2019-05-03T07:36:08.311Z,28.1
2019-05-03T07:37:11.062Z,28.3
2019-05-03T07:38:15.499Z,28.1
2019-05-03T07:39:17.156Z,28.1
2019-05-03T07:40:19.909Z,28.1
2019-05-03T07:41:25.027Z,28.4
2019-05-03T07:42:27.305Z,28.3
2019-05-03T07:43:29.850Z,28.2
2019-05-03T07:44:34.558Z,28.2
2019-05-03T07:45:37.392Z,28.3
2019-05-03T07:46:39.994Z,28.3
2019-05-03T07:47:41.869Z,28.1
2019-05-03T07:48:46.242Z,28.2
2019-05-03T07:49:48.669Z,28.3
2019-05-03T07:50:51.084Z,28.3
2019-05-03T07:51:55.632Z,28
2019-05-03T07:52:58.053Z,28.3
2019-05-03T07:54:00.405Z,28.2
2019-05-03T07:55:05.627Z,28.1
2019-05-03T07:56:08.053Z,28.1
2019-05-03T07:57:10.473Z,28
2019-05-03T07:58:14.461Z,28.1
2019-05-03T07:59:17.611Z,28.1
2019-05-03T08:00:20.034Z,28.2
2019-05-03T08:01:22.468Z,28.2
2019-05-03T08:02:27.656Z,28.2
2019-05-03T08:03:30.180Z,28.1
2019-05-03T08:04:32.592Z,28.2
2019-05-03T08:05:37.248Z,28.2
2019-05-03T08:06:39.877Z,28.1
2019-05-03T08:07:44.376Z,28.3
2019-05-03T08:08:48.494Z,28.2
2019-05-03T08:09:50.913Z,28.2
2019-05-03T08:10:54.939Z,28.3
2019-05-03T08:11:57.506Z,28.1
2019-05-03T08:12:59.931Z,28
2019-05-03T08:14:02.094Z,28.4
2019-05-03T08:15:06.438Z,28
2019-05-03T08:16:08.864Z,28.1
2019-05-03T08:17:11.304Z,28.1
2019-05-03T08:18:15.734Z,28.2
2019-05-03T08:19:18.743Z,28.1
2019-05-03T08:20:25.167Z,28.2
2019-05-03T08:21:27.310Z,28.1
2019-05-03T08:22:30.839Z,28
2019-05-03T08:23:35.322Z,28.1
2019-05-03T08:24:38.087Z,28.2
2019-05-03T08:25:40.244Z,28
2019-05-03T08:26:42.680Z,28.1
2019-05-03T08:27:47.281Z,28.1
2019-05-03T08:28:49.432Z,28
2019-05-03T08:29:51.568Z,28.1
2019-05-03T08:30:54.426Z,28.1
2019-05-03T08:31:56.826Z,28.1
2019-05-03T08:32:58.972Z,28.1
2019-05-03T08:34:01.395Z,28.2
2019-05-03T08:35:07.964Z,28.2
2019-05-03T08:36:10.401Z,28.1
2019-05-03T08:37:12.811Z,28.2
2019-05-03T08:38:17.302Z,28.2
2019-05-03T08:39:19.659Z,28.2
2019-05-03T08:40:22.073Z,28
2019-05-03T08:41:26.476Z,28.2
2019-05-03T08:42:28.338Z,28.2
2019-05-03T08:43:31.514Z,28.2
2019-05-03T08:44:35.318Z,28.1
2019-05-03T08:45:39.404Z,28.2
2019-05-03T08:46:41.880Z,28.3
2019-05-03T08:47:47.340Z,28
2019-05-03T08:48:49.780Z,28.2
2019-05-03T08:49:52.207Z,28.3
2019-05-03T08:50:56.841Z,28
2019-05-03T08:51:58.983Z,28.3
2019-05-03T08:53:01.405Z,27.9
2019-05-03T08:54:07.342Z,28
2019-05-03T08:55:09.768Z,28.2
2019-05-03T08:56:12.202Z,28.3
2019-05-03T08:57:16.603Z,28.1
2019-05-03T08:58:18.788Z,28.2
2019-05-03T08:59:29.586Z,28.1
2019-05-03T09:00:26.196Z,28.1
2019-05-03T09:01:28.628Z,28.1
2019-05-03T09:02:31.076Z,28.1
2019-05-03T09:03:38.245Z,28
2019-05-03T09:04:43.005Z,28.2
2019-05-03T09:05:46.184Z,28.2
2019-05-03T09:06:48.942Z,28.1
2019-05-03T09:07:51.387Z,28.1
2019-05-03T09:08:57.162Z,28.1
2019-05-03T09:09:59.770Z,28
2019-05-03T09:11:01.356Z,28.1
2019-05-03T09:12:07.293Z,28.2
2019-05-03T09:13:09.441Z,28.1
2019-05-03T09:14:11.863Z,28.1
2019-05-03T09:15:16.384Z,28
2019-05-03T09:16:18.894Z,28.2
2019-05-03T09:17:21.310Z,28.1
2019-05-03T09:18:25.960Z,28.1
2019-05-03T09:19:28.612Z,28.1
2019-05-03T09:20:32.389Z,28
2019-05-03T09:21:38.173Z,28.1
2019-05-03T09:22:40.626Z,28.1
2019-05-03T09:23:44.985Z,28.1
2019-05-03T09:24:47.038Z,28.1
2019-05-03T09:25:49.477Z,28.1
2019-05-03T09:26:51.898Z,28.3
2019-05-03T09:27:57.043Z,28.1
2019-05-03T09:28:59.463Z,28.2
2019-05-03T09:30:01.899Z,28.2
2019-05-03T09:31:07.710Z,28.2
2019-05-03T09:32:10.304Z,28
2019-05-03T09:33:12.182Z,28.1
2019-05-03T09:34:16.934Z,27.9
2019-05-03T09:35:29.531Z,27.9
2019-05-03T09:36:25.257Z,28.1
2019-05-03T09:37:27.615Z,28
2019-05-03T09:38:30.032Z,28.1
2019-05-03T09:39:32.176Z,28.2
2019-05-03T09:40:36.423Z,28
2019-05-03T09:41:38.574Z,28.1
2019-05-03T09:42:44.019Z,28
2019-05-03T09:43:48.016Z,28.2
2019-05-03T09:44:52.523Z,28
2019-05-03T09:45:58.892Z,28.1
2019-05-03T09:47:01.291Z,28
2019-05-03T09:48:08.183Z,28.1
2019-05-03T09:49:13.791Z,28.2
2019-05-03T09:50:15.764Z,28.2
2019-05-03T09:51:18.187Z,28.1
2019-05-03T09:52:20.872Z,28.1
2019-05-03T09:53:27.480Z,28.2
2019-05-03T09:54:29.072Z,28.1
2019-05-03T09:55:31.505Z,27.9
2019-05-03T09:56:35.944Z,28.1
2019-05-03T09:57:44.475Z,28.1
2019-05-03T09:58:47.294Z,28.2
2019-05-03T09:59:56.999Z,28.1
2019-05-03T10:00:55.492Z,28.1
2019-05-03T10:01:58.008Z,28.1
2019-05-03T10:03:00.444Z,28.1
2019-05-03T10:04:02.812Z,28
2019-05-03T10:05:07.443Z,28.2
2019-05-03T10:06:10.474Z,28.2
2019-05-03T10:07:16.411Z,28.1
2019-05-03T10:08:18.848Z,28.2
2019-05-03T10:09:21.002Z,28.2
2019-05-03T10:10:24.774Z,28
2019-05-03T10:11:27.315Z,28.2
2019-05-03T10:12:29.464Z,28.2
2019-05-03T10:13:31.894Z,28.2
2019-05-03T10:14:37.362Z,28.3
2019-05-03T10:15:39.519Z,28
2019-05-03T10:16:44.752Z,28.1
2019-05-03T10:17:46.931Z,28.2
2019-05-03T10:18:49.958Z,27.9
2019-05-03T10:21:26.260Z,28.2
2019-05-03T10:22:28.984Z,28.1
2019-05-03T10:23:31.405Z,28
2019-05-03T10:24:37.945Z,27.8
2019-05-03T10:25:40.570Z,28.2
2019-05-03T10:26:42.978Z,28
2019-05-03T10:27:47.510Z,28.3
2019-05-03T10:28:49.851Z,28.2
2019-05-03T10:29:54.202Z,28.2
2019-05-03T10:30:57.861Z,28
2019-05-03T10:32:00.840Z,28.2
2019-05-03T10:33:05.804Z,28
2019-05-03T10:34:08.232Z,28.2
2019-05-03T10:35:10.983Z,28.2
2019-05-03T10:36:17.406Z,28
2019-05-03T10:37:20.976Z,28.2
2019-05-03T10:38:25.126Z,28.2
2019-05-03T10:39:27.548Z,28.4
2019-05-03T10:40:30.596Z,28.1
2019-05-03T10:41:34.744Z,28.1
2019-05-03T10:42:36.997Z,28
2019-05-03T10:43:40.394Z,28.2
2019-05-03T10:44:44.768Z,28.1
2019-05-03T10:45:47.274Z,28.2
2019-05-03T10:46:50.306Z,28.1
2019-05-03T10:47:51.904Z,28
2019-05-03T10:48:55.741Z,28.2
2019-05-03T10:49:58.381Z,28.2
2019-05-03T10:51:00.527Z,28
2019-05-03T10:52:07.423Z,28.1
2019-05-03T10:53:09.848Z,28.1
2019-05-03T10:54:11.994Z,28.1
2019-05-03T10:55:16.552Z,28.3
2019-05-03T10:56:24.344Z,28.1
2019-05-03T10:57:24.801Z,28
2019-05-03T10:58:27.274Z,28.1
2019-05-03T10:59:29.884Z,28.2
2019-05-03T11:02:05.928Z,28
2019-05-03T11:03:08.284Z,28
2019-05-03T11:04:10.717Z,28.1
2019-05-03T11:05:14.602Z,28.1
2019-05-03T11:06:17.101Z,28
2019-05-03T11:07:19.534Z,28
2019-05-03T11:08:21.966Z,28
2019-05-03T11:09:25.763Z,28.2
2019-05-03T11:10:28.450Z,28
2019-05-03T11:11:31.661Z,28.2
2019-05-03T11:12:36.351Z,28.3
2019-05-03T11:13:38.754Z,28.1
2019-05-03T11:14:41.177Z,28.1
2019-05-03T11:15:48.077Z,28
2019-05-03T11:16:50.503Z,28
2019-05-03T11:19:09.208Z,28.3
2019-05-03T11:20:11.132Z,28.1
2019-05-03T11:21:27.823Z,28.1
2019-05-03T11:22:22.644Z,28
2019-05-03T11:23:26.651Z,28
2019-05-03T11:24:28.271Z,27.9
2019-05-03T11:25:30.481Z,28
2019-05-03T11:26:35.446Z,28
2019-05-03T11:27:37.860Z,28
2019-05-03T11:28:40.762Z,28
2019-05-03T11:29:45.331Z,27.9
2019-05-03T11:30:55.163Z,27.8
2019-05-03T11:31:52.496Z,27.9
2019-05-03T11:32:56.987Z,28
2019-05-03T11:33:59.421Z,28
2019-05-03T11:35:01.851Z,28.1
2019-05-03T11:36:06.198Z,27.9
2019-05-03T11:37:08.622Z,28.1
2019-05-03T11:38:11.654Z,28
2019-05-03T11:39:17.178Z,28.1
2019-05-03T11:40:19.623Z,28
2019-05-03T11:41:30.128Z,27.9
2019-05-03T11:42:27.056Z,27.9
2019-05-03T11:43:29.761Z,27.9
2019-05-03T11:44:31.908Z,28.1
2019-05-03T11:45:35.317Z,28
2019-05-03T11:46:39.064Z,27.9
2019-05-03T11:47:41.645Z,28
2019-05-03T11:48:48.064Z,28
2019-05-03T11:49:51.095Z,27.8
2019-05-03T11:50:55.624Z,27.9
2019-05-03T11:51:57.998Z,28
2019-05-03T11:53:01.955Z,27.7
2019-05-03T11:54:06.733Z,27.6
2019-05-03T11:55:11.139Z,27.9
2019-05-03T11:56:14.807Z,28
2019-05-03T11:57:17.295Z,28
2019-05-03T11:58:19.464Z,27.8
2019-05-03T11:59:21.894Z,27.9
2019-05-03T12:00:28.533Z,28
2019-05-03T12:01:30.884Z,27.9
2019-05-03T12:02:33.320Z,28.1
2019-05-03T12:03:36.057Z,28
2019-05-03T12:04:38.497Z,28
2019-05-03T12:05:40.930Z,27.9
2019-05-03T12:06:45.463Z,27.8
2019-05-03T12:07:47.999Z,27.8
2019-05-03T12:08:49.880Z,28
2019-05-03T12:09:52.025Z,28
2019-05-03T12:11:00.692Z,27.9
2019-05-03T12:12:01.824Z,28.1
2019-05-03T12:13:07.286Z,28.2
2019-05-03T12:14:09.724Z,27.7
2019-05-03T12:15:11.364Z,28.1
2019-05-03T12:16:21.212Z,27.7
2019-05-03T12:17:26.698Z,27.8
2019-05-03T12:18:26.214Z,27.9
2019-05-03T12:19:31.670Z,28
2019-05-03T12:20:40.672Z,28
2019-05-03T12:21:49.321Z,27.9
2019-05-03T12:22:57.009Z,27.7
2019-05-03T12:24:07.643Z,28
2019-05-03T12:25:18.468Z,28.1
2019-05-03T12:26:40.567Z,28.2
2019-05-03T12:27:34.853Z,28
2019-05-03T12:28:37.400Z,28
2019-05-03T12:29:39.847Z,28.1
2019-05-03T12:30:42.287Z,28.1
2019-05-03T12:31:47.465Z,28
2019-05-03T12:32:50.096Z,28
2019-05-03T12:33:54.876Z,28.2
2019-05-03T12:34:57.486Z,28
2019-05-03T12:36:00.100Z,27.9
2019-05-03T12:37:02.207Z,28
2019-05-03T12:38:07.655Z,28
2019-05-03T12:39:23.087Z,28.1
2019-05-03T12:40:15.264Z,28
2019-05-03T12:41:18.314Z,28.1
2019-05-03T12:42:21.215Z,28.2
2019-05-03T12:43:26.939Z,27.9
2019-05-03T12:44:29.378Z,28.2
2019-05-03T12:45:32.414Z,28
2019-05-03T12:46:37.281Z,28
2019-05-03T12:47:40.550Z,28.1
2019-05-03T12:48:44.780Z,27.9
2019-05-03T12:49:47.547Z,28.1
2019-05-03T12:50:50.701Z,28
2019-05-03T12:51:56.037Z,28.2
2019-05-03T12:52:58.241Z,28
2019-05-03T12:54:00.686Z,28.1
2019-05-03T12:55:07.324Z,28
2019-05-03T12:56:12.836Z,28.2
2019-05-03T12:57:15.459Z,28
2019-05-03T12:58:18.804Z,28.2
2019-05-03T12:59:21.564Z,28.3
2019-05-03T13:00:25.067Z,28.2
2019-05-03T13:01:40.189Z,28.3
2019-05-03T13:02:32.755Z,28.3
2019-05-03T13:03:36.919Z,28.2
2019-05-03T13:04:41.050Z,28.6
2019-05-03T13:05:47.072Z,28.5
2019-05-03T13:06:50.361Z,28.6
2019-05-03T13:07:52.534Z,28.5
2019-05-03T13:08:56.694Z,28.5
2019-05-03T13:09:59.232Z,28.5
2019-05-03T13:11:01.675Z,28.6
2019-05-03T13:12:06.070Z,28.5
2019-05-03T13:13:08.501Z,28.4
2019-05-03T13:14:10.683Z,28.5
2019-05-03T13:15:14.428Z,28.6
2019-05-03T13:16:16.642Z,28.6
2019-05-03T13:17:19.079Z,28.7
2019-05-03T13:18:21.507Z,28.7
2019-05-03T13:19:27.926Z,28.5
2019-05-03T13:20:29.922Z,28.5
2019-05-03T13:21:32.534Z,28.5
2019-05-03T13:22:37.045Z,28.6
2019-05-03T13:23:39.494Z,28.6
2019-05-03T13:24:41.708Z,28.5
2019-05-03T13:25:46.130Z,28.5
2019-05-03T13:26:48.296Z,28.3
2019-05-03T13:27:50.893Z,28.4
2019-05-03T13:28:55.435Z,28.2
2019-05-03T13:30:01.370Z,28.3
2019-05-03T13:31:06.234Z,28.4
2019-05-03T13:32:08.686Z,28.5
2019-05-03T13:33:10.874Z,28.5
2019-05-03T13:34:12.748Z,28.3
2019-05-03T13:35:17.379Z,28.4
2019-05-03T13:36:19.788Z,28.4
2019-05-03T13:37:22.244Z,28.4
2019-05-03T13:38:27.709Z,28.4
2019-05-03T13:39:30.145Z,28.3
2019-05-03T13:40:32.318Z,28.1
2019-05-03T13:41:38.264Z,28.4
2019-05-03T13:42:53.035Z,28.3
2019-05-03T13:43:45.589Z,28.3
2019-05-03T13:44:49.698Z,28.3
2019-05-03T13:45:51.795Z,28.4
2019-05-03T13:46:58.198Z,28.4
2019-05-03T13:48:01.267Z,28.4
2019-05-03T13:49:08.726Z,28.2
2019-05-03T13:50:11.447Z,28.1
2019-05-03T13:51:16.085Z,28.3
2019-05-03T13:52:18.673Z,28.3
2019-05-03T13:53:21.396Z,28.2
2019-05-03T13:54:26.676Z,28.2
2019-05-03T13:55:28.716Z,28.2
2019-05-03T13:56:31.147Z,28.3
2019-05-03T13:57:35.779Z,28.3
2019-05-03T13:58:37.643Z,28.2
2019-05-03T13:59:39.995Z,28.3
2019-05-03T14:00:42.124Z,28.1
2019-05-03T14:01:47.958Z,28.2
2019-05-03T14:02:50.096Z,28.3
2019-05-03T14:03:54.525Z,28.2
2019-05-03T14:04:56.513Z,28
2019-05-03T14:05:58.666Z,28.3
2019-05-03T14:07:01.737Z,28.2
2019-05-03T14:08:05.564Z,28.5
2019-05-03T14:09:07.996Z,28.3
2019-05-03T14:10:10.430Z,28.4
2019-05-03T14:11:12.874Z,28.3
2019-05-03T14:12:17.452Z,28.4
2019-05-03T14:13:20.055Z,28.2
2019-05-03T14:14:22.474Z,28.5
2019-05-03T14:15:26.971Z,28.3
2019-05-03T14:16:29.398Z,28.2
2019-05-03T14:17:31.278Z,28.3
2019-05-03T14:18:35.136Z,28.3
2019-05-03T14:19:37.766Z,28.2
2019-05-03T14:20:39.926Z,28.4
2019-05-03T14:21:42.099Z,28.3
2019-05-03T14:22:44.295Z,28.1